sensor_id;sensor_type;location;lat;lon;timestamp;temperature;humidity
49821;DHT22;36893;52.520;13.450;2023-03-05T00:08:07;22.00;64.50
49821;DHT22;36893;52.520;13.450;2023-03-05T00:18:08;22.10;64.60
49821;DHT22;36893;52.520;13.450;2023-03-05T00:28:08;22.00;64.50
49821;DHT22;36893;52.520;13.450;2023-03-05T00:38:10;22.10;64.60
49821;DHT22;36893;52.520;13.450;2023-03-05T00:48:11;22.10;64.50
49821;DHT22;36893;52.520;13.450;2023-03-05T00:58:12;22.10;64.60
49821;DHT22;36893;52.520;13.450;2023-03-05T01:08:14;22.10;64.60
49821;DHT22;36893;52.520;13.450;2023-03-05T01:18:17;22.10;64.60
49821;DHT22;36893;52.520;13.450;2023-03-05T01:28:18;22.10;64.60
49821;DHT22;36893;52.520;13.450;2023-03-05T01:38:19;22.20;64.70
49821;DHT22;36893;52.520;13.450;2023-03-05T01:48:20;22.20;64.60
49821;DHT22;36893;52.520;13.450;2023-03-05T01:58:20;22.20;64.60
49821;DHT22;36893;52.520;13.450;2023-03-05T02:08:21;22.20;64.60
49821;DHT22;36893;52.520;13.450;2023-03-05T02:18:22;22.20;64.60
49821;DHT22;36893;52.520;13.450;2023-03-05T02:28:31;22.10;64.50
49821;DHT22;36893;52.520;13.450;2023-03-05T02:38:37;22.10;64.60
49821;DHT22;36893;52.520;13.450;2023-03-05T02:48:38;22.00;64.60
49821;DHT22;36893;52.520;13.450;2023-03-05T02:58:39;21.90;64.70
49821;DHT22;36893;52.520;13.450;2023-03-05T03:08:40;21.90;64.70
49821;DHT22;36893;52.520;13.450;2023-03-05T03:18:40;21.80;64.80
49821;DHT22;36893;52.520;13.450;2023-03-05T03:28:41;21.70;64.80
49821;DHT22;36893;52.520;13.450;2023-03-05T03:38:42;21.60;64.80
49821;DHT22;36893;52.520;13.450;2023-03-05T03:48:43;21.70;64.70
49821;DHT22;36893;52.520;13.450;2023-03-05T03:58:43;21.70;64.60
49821;DHT22;36893;52.520;13.450;2023-03-05T04:08:44;21.70;64.50
49821;DHT22;36893;52.520;13.450;2023-03-05T04:18:45;21.70;64.50
49821;DHT22;36893;52.520;13.450;2023-03-05T04:28:46;21.60;64.40
49821;DHT22;36893;52.520;13.450;2023-03-05T04:38:47;21.60;64.50
49821;DHT22;36893;52.520;13.450;2023-03-05T04:48:48;21.50;64.50
49821;DHT22;36893;52.520;13.450;2023-03-05T04:58:48;21.40;64.60
49821;DHT22;36893;52.520;13.450;2023-03-05T05:08:49;21.30;64.60
49821;DHT22;36893;52.520;13.450;2023-03-05T05:18:49;21.30;64.60
49821;DHT22;36893;52.520;13.450;2023-03-05T05:28:50;21.30;64.60
49821;DHT22;36893;52.520;13.450;2023-03-05T05:38:51;21.30;64.50
49821;DHT22;36893;52.520;13.450;2023-03-05T05:48:51;21.20;64.50
49821;DHT22;36893;52.520;13.450;2023-03-05T05:58:53;21.20;64.60
49821;DHT22;36893;52.520;13.450;2023-03-05T06:09:02;21.10;64.60
49821;DHT22;36893;52.520;13.450;2023-03-05T06:19:15;21.10;64.60
49821;DHT22;36893;52.520;13.450;2023-03-05T06:29:17;21.00;64.50
49821;DHT22;36893;52.520;13.450;2023-03-05T06:39:17;21.00;64.60
49821;DHT22;36893;52.520;13.450;2023-03-05T06:49:18;21.00;64.60
49821;DHT22;36893;52.520;13.450;2023-03-05T06:59:19;21.00;65.40
49821;DHT22;36893;52.520;13.450;2023-03-05T07:09:23;20.90;64.50
49821;DHT22;36893;52.520;13.450;2023-03-05T07:19:26;20.90;64.70
49821;DHT22;36893;52.520;13.450;2023-03-05T07:29:27;20.90;64.90
49821;DHT22;36893;52.520;13.450;2023-03-05T07:39:28;20.80;64.90
49821;DHT22;36893;52.520;13.450;2023-03-05T07:49:29;20.80;65.10
49821;DHT22;36893;52.520;13.450;2023-03-05T07:59:30;20.80;65.20
49821;DHT22;36893;52.520;13.450;2023-03-05T08:09:31;20.80;65.20
49821;DHT22;36893;52.520;13.450;2023-03-05T08:19:32;20.70;65.30
49821;DHT22;36893;52.520;13.450;2023-03-05T08:29:33;20.70;65.40
49821;DHT22;36893;52.520;13.450;2023-03-05T08:39:34;20.70;65.60
49821;DHT22;36893;52.520;13.450;2023-03-05T08:49:36;20.70;65.60
49821;DHT22;36893;52.520;13.450;2023-03-05T08:59:36;20.60;65.70
49821;DHT22;36893;52.520;13.450;2023-03-05T09:09:37;20.60;65.70
49821;DHT22;36893;52.520;13.450;2023-03-05T09:19:38;20.70;65.80
49821;DHT22;36893;52.520;13.450;2023-03-05T09:29:39;20.70;65.90
49821;DHT22;36893;52.520;13.450;2023-03-05T09:39:39;20.70;66.10
49821;DHT22;36893;52.520;13.450;2023-03-05T09:50:04;20.70;66.30
49821;DHT22;36893;52.520;13.450;2023-03-05T10:00:38;20.70;66.50
49821;DHT22;36893;52.520;13.450;2023-03-05T10:10:48;20.70;66.50
49821;DHT22;36893;52.520;13.450;2023-03-05T10:21:00;20.70;66.50
49821;DHT22;36893;52.520;13.450;2023-03-05T10:42:01;20.80;66.50
49821;DHT22;36893;52.520;13.450;2023-03-05T10:52:16;21.10;66.20
49821;DHT22;36893;52.520;13.450;2023-03-05T11:02:18;21.20;65.90
49821;DHT22;36893;52.520;13.450;2023-03-05T11:12:25;21.40;65.90
49821;DHT22;36893;52.520;13.450;2023-03-05T11:22:27;21.50;66.00
49821;DHT22;36893;52.520;13.450;2023-03-05T11:32:31;21.50;66.00
49821;DHT22;36893;52.520;13.450;2023-03-05T11:42:32;21.60;66.00
49821;DHT22;36893;52.520;13.450;2023-03-05T11:52:45;21.60;66.00
49821;DHT22;36893;52.520;13.450;2023-03-05T12:03:18;21.70;66.10
49821;DHT22;36893;52.520;13.450;2023-03-05T12:13:32;21.60;66.30
49821;DHT22;36893;52.520;13.450;2023-03-05T12:23:46;21.40;66.60
49821;DHT22;36893;52.520;13.450;2023-03-05T12:34:40;21.30;66.80
49821;DHT22;36893;52.520;13.450;2023-03-05T12:55:28;21.00;67.30
49821;DHT22;36893;52.520;13.450;2023-03-05T13:05:35;20.90;67.30
49821;DHT22;36893;52.520;13.450;2023-03-05T13:15:37;20.90;67.50
49821;DHT22;36893;52.520;13.450;2023-03-05T13:25:38;20.80;67.50
49821;DHT22;36893;52.520;13.450;2023-03-05T13:35:46;20.80;67.60
49821;DHT22;36893;52.520;13.450;2023-03-05T13:45:52;20.70;67.70
49821;DHT22;36893;52.520;13.450;2023-03-05T13:56:00;20.70;67.80
49821;DHT22;36893;52.520;13.450;2023-03-05T14:06:09;20.70;67.80
49821;DHT22;36893;52.520;13.450;2023-03-05T14:16:29;20.70;67.90
49821;DHT22;36893;52.520;13.450;2023-03-05T14:26:34;20.80;67.90
49821;DHT22;36893;52.520;13.450;2023-03-05T14:36:36;21.10;67.50
49821;DHT22;36893;52.520;13.450;2023-03-05T14:46:38;21.20;67.20
49821;DHT22;36893;52.520;13.450;2023-03-05T14:56:39;21.40;67.20
49821;DHT22;36893;52.520;13.450;2023-03-05T15:06:40;21.50;67.10
49821;DHT22;36893;52.520;13.450;2023-03-05T15:16:43;21.50;67.10
49821;DHT22;36893;52.520;13.450;2023-03-05T15:26:44;21.60;67.00
49821;DHT22;36893;52.520;13.450;2023-03-05T15:36:45;21.70;67.00
49821;DHT22;36893;52.520;13.450;2023-03-05T15:46:46;21.70;67.00
49821;DHT22;36893;52.520;13.450;2023-03-05T15:56:46;21.70;67.00
49821;DHT22;36893;52.520;13.450;2023-03-05T16:06:48;21.70;67.10
49821;DHT22;36893;52.520;13.450;2023-03-05T16:16:52;21.70;67.20
49821;DHT22;36893;52.520;13.450;2023-03-05T16:26:54;21.70;67.20
49821;DHT22;36893;52.520;13.450;2023-03-05T16:36:55;21.70;67.30
49821;DHT22;36893;52.520;13.450;2023-03-05T16:46:56;21.70;67.10
49821;DHT22;36893;52.520;13.450;2023-03-05T16:56:57;21.70;67.10
49821;DHT22;36893;52.520;13.450;2023-03-05T17:06:58;21.80;67.20
49821;DHT22;36893;52.520;13.450;2023-03-05T17:16:58;21.80;67.20
49821;DHT22;36893;52.520;13.450;2023-03-05T17:27:00;21.80;67.10
49821;DHT22;36893;52.520;13.450;2023-03-05T17:37:05;21.90;67.10
49821;DHT22;36893;52.520;13.450;2023-03-05T17:47:08;21.80;67.10
49821;DHT22;36893;52.520;13.450;2023-03-05T17:57:09;21.90;67.00
49821;DHT22;36893;52.520;13.450;2023-03-05T18:07:10;21.90;66.90
49821;DHT22;36893;52.520;13.450;2023-03-05T18:17:11;21.90;66.90
49821;DHT22;36893;52.520;13.450;2023-03-05T18:27:12;21.90;66.90
49821;DHT22;36893;52.520;13.450;2023-03-05T18:37:12;22.00;66.80
49821;DHT22;36893;52.520;13.450;2023-03-05T18:47:13;22.00;66.80
49821;DHT22;36893;52.520;13.450;2023-03-05T18:57:13;22.00;66.80
49821;DHT22;36893;52.520;13.450;2023-03-05T19:07:14;22.00;66.90
49821;DHT22;36893;52.520;13.450;2023-03-05T19:17:15;22.00;66.70
49821;DHT22;36893;52.520;13.450;2023-03-05T19:27:16;22.00;66.70
49821;DHT22;36893;52.520;13.450;2023-03-05T19:37:18;22.00;66.70
49821;DHT22;36893;52.520;13.450;2023-03-05T19:47:18;22.10;66.70
49821;DHT22;36893;52.520;13.450;2023-03-05T19:57:19;22.10;66.60
49821;DHT22;36893;52.520;13.450;2023-03-05T20:07:20;22.10;66.50
49821;DHT22;36893;52.520;13.450;2023-03-05T20:17:21;22.10;66.50
49821;DHT22;36893;52.520;13.450;2023-03-05T20:27:21;22.10;66.60
49821;DHT22;36893;52.520;13.450;2023-03-05T20:37:24;22.10;66.40
49821;DHT22;36893;52.520;13.450;2023-03-05T20:47:31;22.20;66.40
49821;DHT22;36893;52.520;13.450;2023-03-05T20:57:39;22.20;66.40
49821;DHT22;36893;52.520;13.450;2023-03-05T21:07:51;22.10;66.70
49821;DHT22;36893;52.520;13.450;2023-03-05T21:17:52;22.00;65.90
49821;DHT22;36893;52.520;13.450;2023-03-05T21:28:00;21.90;65.90
49821;DHT22;36893;52.520;13.450;2023-03-05T21:38:07;21.80;65.80
49821;DHT22;36893;52.520;13.450;2023-03-05T21:48:11;21.70;65.70
49821;DHT22;36893;52.520;13.450;2023-03-05T21:58:13;21.60;65.80
49821;DHT22;36893;52.520;13.450;2023-03-05T22:08:14;21.50;65.90
49821;DHT22;36893;52.520;13.450;2023-03-05T22:18:16;21.40;66.00
49821;DHT22;36893;52.520;13.450;2023-03-05T22:28:18;21.30;66.10
49821;DHT22;36893;52.520;13.450;2023-03-05T22:38:19;21.20;66.20
49821;DHT22;36893;52.520;13.450;2023-03-05T22:48:20;21.10;66.40
49821;DHT22;36893;52.520;13.450;2023-03-05T22:58:20;21.00;66.50
49821;DHT22;36893;52.520;13.450;2023-03-05T23:08:21;20.90;66.50
49821;DHT22;36893;52.520;13.450;2023-03-05T23:18:22;20.90;66.60
49821;DHT22;36893;52.520;13.450;2023-03-05T23:28:22;20.80;66.60
49821;DHT22;36893;52.520;13.450;2023-03-05T23:38:25;20.80;66.70
49821;DHT22;36893;52.520;13.450;2023-03-05T23:48:28;20.70;66.60
49821;DHT22;36893;52.520;13.450;2023-03-05T23:58:29;20.70;66.70
